createdAt,value
2024-02-29T00:00:05.914Z,32.09
2024-02-29T00:01:06.031Z,32.04
2024-02-29T00:02:05.915Z,32.03
2024-02-29T00:03:05.913Z,32.04
2024-02-29T00:04:06.027Z,32.07
2024-02-29T00:56:05.200Z,32.06
2024-02-29T00:57:06.182Z,32.05
2024-02-29T00:58:06.221Z,32.03
2024-02-29T00:59:06.205Z,32.03
2024-02-29T01:00:06.233Z,32.02
2024-02-29T01:01:06.217Z,32.03
2024-02-29T01:02:06.221Z,32.00
2024-02-29T01:03:06.194Z,32.02
2024-02-29T01:04:06.216Z,31.99
2024-02-29T01:05:06.221Z,31.96
2024-02-29T01:06:06.195Z,32.02
2024-02-29T01:07:06.257Z,31.99
2024-02-29T01:08:06.201Z,31.96
2024-02-29T01:09:06.239Z,31.99
2024-02-29T01:10:06.289Z,31.97
2024-02-29T01:11:06.221Z,32.00
2024-02-29T01:12:06.321Z,31.97
2024-02-29T01:13:06.293Z,32.00
2024-02-29T01:14:06.243Z,31.99
2024-02-29T01:15:06.234Z,32.00
2024-02-29T01:16:06.386Z,31.97
2024-02-29T01:17:06.207Z,31.97
2024-02-29T01:18:06.239Z,32.00
2024-02-29T01:19:06.274Z,31.96
2024-02-29T01:20:06.213Z,31.99
2024-02-29T01:21:06.228Z,31.97
2024-02-29T01:22:06.280Z,31.97
2024-02-29T01:23:06.223Z,31.96
2024-02-29T01:24:06.236Z,31.96
2024-02-29T01:25:06.280Z,31.99
2024-02-29T01:26:06.219Z,31.96
2024-02-29T01:27:06.226Z,31.99
2024-02-29T01:28:06.283Z,31.96
2024-02-29T01:29:06.226Z,31.94
2024-02-29T01:30:06.225Z,31.99
2024-02-29T01:31:06.248Z,32.00
2024-02-29T01:32:15.501Z,31.99
2024-02-29T01:33:06.256Z,31.94
2024-02-29T01:34:06.273Z,31.94
2024-02-29T01:35:06.240Z,31.93
2024-02-29T01:36:06.243Z,31.95
2024-02-29T01:37:06.280Z,31.97
2024-02-29T01:38:06.236Z,31.96
2024-02-29T01:39:06.254Z,31.97
2024-02-29T01:40:06.324Z,31.95
2024-02-29T01:41:06.238Z,31.94
2024-02-29T01:42:06.241Z,31.94
2024-02-29T01:43:06.265Z,31.94
2024-02-29T01:44:06.281Z,31.96
2024-02-29T01:45:06.243Z,31.95
2024-02-29T01:46:06.300Z,31.90
2024-02-29T01:47:06.242Z,31.92
2024-02-29T01:48:06.290Z,31.95
2024-02-29T01:49:06.323Z,31.96
2024-02-29T01:50:06.251Z,31.94
2024-02-29T01:51:06.252Z,31.92
2024-02-29T01:52:06.347Z,31.93
2024-02-29T01:53:06.254Z,31.96
2024-02-29T01:54:06.261Z,31.90
2024-02-29T01:55:06.325Z,31.96
2024-02-29T01:56:06.266Z,31.92
2024-02-29T01:57:06.257Z,31.90
2024-02-29T01:58:06.294Z,31.92
2024-02-29T01:59:06.266Z,31.94
2024-02-29T02:00:06.876Z,31.91
2024-02-29T02:01:06.347Z,31.92
2024-02-29T02:02:06.263Z,31.94
2024-02-29T02:03:06.266Z,31.90
2024-02-29T02:04:06.344Z,31.96
2024-02-29T02:05:06.272Z,31.94
2024-02-29T02:06:06.292Z,31.92
2024-02-29T02:07:06.431Z,31.92
2024-02-29T02:08:06.278Z,31.92
2024-02-29T02:09:06.312Z,31.94
2024-02-29T02:10:06.300Z,31.96
2024-02-29T02:11:06.340Z,31.93
2024-02-29T02:12:06.297Z,31.93
2024-02-29T02:13:06.359Z,31.94
2024-02-29T02:14:06.286Z,31.93
2024-02-29T02:15:06.294Z,31.92
2024-02-29T02:16:06.392Z,31.92
2024-02-29T02:17:06.293Z,31.92
2024-02-29T02:18:06.324Z,31.92
2024-02-29T02:19:06.413Z,31.90
2024-02-29T02:20:06.300Z,31.93
2024-02-29T02:21:06.295Z,31.96
2024-02-29T02:22:06.432Z,31.92
2024-02-29T02:23:06.292Z,31.93
2024-02-29T02:24:06.299Z,31.89
2024-02-29T02:25:06.325Z,31.92
2024-02-29T02:26:06.299Z,31.93
2024-02-29T02:27:06.315Z,31.92
2024-02-29T02:28:06.356Z,31.87
2024-02-29T02:29:06.338Z,31.86
2024-02-29T02:30:06.310Z,31.89
2024-02-29T02:31:06.364Z,31.92
2024-02-29T02:32:06.334Z,31.92
2024-02-29T02:33:06.345Z,31.87
2024-02-29T02:34:06.376Z,31.87
2024-02-29T02:35:06.320Z,31.89
2024-02-29T02:36:06.330Z,31.90
2024-02-29T02:37:06.358Z,31.89
2024-02-29T02:38:06.312Z,31.92
2024-02-29T02:39:06.313Z,31.92
2024-02-29T02:41:05.326Z,31.86
2024-02-29T02:42:06.323Z,31.86
2024-02-29T02:44:05.339Z,31.87
2024-02-29T02:45:06.324Z,31.90
2024-02-29T02:46:06.336Z,31.87
2024-02-29T02:47:06.336Z,31.89
2024-02-29T02:48:06.504Z,31.86
2024-02-29T02:49:06.452Z,31.90
2024-02-29T02:50:06.359Z,31.89
2024-02-29T02:51:06.337Z,31.92
2024-02-29T02:52:06.354Z,31.90
2024-02-29T02:53:06.346Z,31.87
2024-02-29T02:54:06.339Z,31.90
2024-02-29T02:55:06.427Z,31.87
2024-02-29T02:56:06.353Z,31.89
2024-02-29T02:57:06.345Z,31.89
2024-02-29T02:58:06.379Z,31.92
2024-02-29T02:59:06.355Z,31.89
2024-02-29T03:00:06.386Z,31.89
2024-02-29T03:01:06.431Z,31.89
2024-02-29T03:02:06.458Z,31.86
2024-02-29T03:03:06.433Z,31.83
2024-02-29T03:04:06.510Z,31.92
2024-02-29T03:05:06.474Z,31.87
2024-02-29T03:06:06.480Z,31.86
2024-02-29T03:07:06.548Z,31.92
2024-02-29T03:08:06.516Z,31.87
2024-02-29T03:09:06.998Z,31.89
2024-02-29T03:10:06.624Z,31.85
2024-02-29T03:11:06.605Z,31.90
2024-02-29T03:12:06.624Z,31.86
2024-02-29T03:13:06.634Z,31.92
2024-02-29T03:14:06.621Z,31.90
2024-02-29T03:15:06.680Z,31.84
2024-02-29T03:16:06.754Z,31.85
2024-02-29T03:17:06.681Z,31.86
2024-02-29T03:18:06.774Z,31.86
2024-02-29T03:19:06.789Z,31.85
2024-02-29T03:20:06.822Z,31.87
2024-02-29T03:21:06.834Z,31.81
2024-02-29T03:22:06.976Z,31.86
2024-02-29T03:23:06.924Z,31.83
2024-02-29T03:24:06.972Z,31.87
2024-02-29T03:25:07.070Z,31.81
2024-02-29T03:26:07.075Z,31.82
2024-02-29T03:27:07.128Z,31.84
2024-02-29T03:28:07.255Z,31.89
2024-02-29T03:29:07.225Z,31.82
2024-02-29T03:30:07.260Z,31.84
2024-02-29T03:31:07.345Z,31.86
2024-02-29T03:32:07.361Z,31.84
2024-02-29T03:33:07.443Z,31.86
2024-02-29T03:34:07.511Z,31.83
2024-02-29T03:35:07.494Z,31.87
2024-02-29T03:36:07.568Z,31.85
2024-02-29T03:37:07.656Z,31.86
2024-02-29T03:38:07.653Z,31.85
2024-02-29T03:39:07.681Z,31.89
2024-02-29T03:40:07.814Z,31.88
2024-02-29T03:41:08.047Z,31.87
2024-02-29T03:42:07.852Z,31.86
2024-02-29T03:43:07.900Z,31.83
2024-02-29T03:44:07.917Z,31.83
2024-02-29T03:45:07.981Z,31.83
2024-02-29T03:46:08.071Z,31.87
2024-02-29T03:47:08.061Z,31.82
2024-02-29T03:48:08.157Z,31.86
2024-02-29T03:49:08.221Z,31.82
2024-02-29T03:50:08.213Z,31.83
2024-02-29T03:51:08.255Z,31.83
2024-02-29T03:52:08.413Z,31.82
2024-02-29T03:53:08.388Z,31.84
2024-02-29T03:54:08.414Z,31.82
2024-02-29T03:55:08.549Z,31.76
2024-02-29T03:56:08.529Z,31.83
2024-02-29T03:57:08.570Z,31.80
2024-02-29T03:58:08.647Z,31.82
2024-02-29T03:59:08.678Z,31.83
2024-02-29T04:00:08.728Z,31.83
2024-02-29T04:01:08.820Z,31.82
2024-02-29T04:02:08.816Z,31.84
2024-02-29T04:03:08.859Z,31.80
2024-02-29T04:04:09.015Z,31.77
2024-02-29T04:05:08.968Z,31.86
2024-02-29T04:06:09.021Z,31.82
2024-02-29T04:07:09.208Z,31.84
2024-02-29T04:08:09.148Z,31.82
2024-02-29T04:09:09.183Z,31.77
2024-02-29T04:10:09.330Z,31.83
2024-02-29T04:11:09.321Z,31.87
2024-02-29T04:12:09.349Z,31.80
2024-02-29T04:13:09.472Z,31.80
2024-02-29T04:14:09.450Z,31.82
2024-02-29T04:15:09.508Z,31.82
2024-02-29T04:16:09.601Z,31.79
2024-02-29T04:17:09.613Z,31.80
2024-02-29T04:18:09.713Z,31.84
2024-02-29T04:19:09.801Z,31.87
2024-02-29T04:20:09.998Z,31.84
2024-02-29T04:21:09.814Z,31.79
2024-02-29T04:22:09.922Z,31.81
2024-02-29T04:23:09.959Z,31.81
2024-02-29T04:24:09.992Z,31.87
2024-02-29T04:25:10.136Z,31.81
2024-02-29T04:26:10.076Z,31.79
2024-02-29T04:27:10.154Z,31.80
2024-02-29T04:28:10.225Z,31.77
2024-02-29T04:29:10.205Z,31.80
2024-02-29T04:30:10.218Z,31.77
2024-02-29T04:31:10.294Z,31.76
2024-02-29T04:32:10.253Z,31.73
2024-02-29T04:33:10.294Z,31.76
2024-02-29T04:34:10.374Z,31.70
2024-02-29T04:35:10.326Z,31.70
2024-02-29T04:36:10.315Z,31.71
2024-02-29T04:37:10.344Z,31.70
2024-02-29T04:38:10.340Z,31.66
2024-02-29T04:39:10.344Z,31.62
2024-02-29T04:40:11.530Z,31.67
2024-02-29T04:41:10.460Z,31.63
2024-02-29T04:42:17.640Z,31.66
2024-02-29T04:43:18.681Z,31.66
2024-02-29T04:44:18.645Z,31.66
2024-02-29T04:45:18.638Z,31.63
2024-02-29T04:46:18.716Z,31.57
2024-02-29T04:47:18.640Z,31.59
2024-02-29T04:48:18.660Z,31.61
2024-02-29T04:49:18.718Z,31.55
2024-02-29T04:50:18.661Z,31.56
2024-02-29T04:51:18.642Z,31.59
2024-02-29T04:52:18.663Z,31.57
2024-02-29T04:53:18.654Z,31.53
2024-02-29T04:54:18.650Z,31.51
2024-02-29T04:55:18.793Z,31.53
2024-02-29T04:56:18.662Z,31.53
2024-02-29T04:57:18.658Z,31.49
2024-02-29T04:58:18.732Z,31.53
2024-02-29T04:59:18.659Z,31.49
2024-02-29T05:00:18.649Z,31.43
2024-02-29T05:01:18.903Z,31.49
2024-02-29T05:02:18.662Z,31.46
2024-02-29T05:03:18.658Z,31.45
2024-02-29T05:04:18.698Z,31.47
2024-02-29T05:05:18.655Z,31.44
2024-02-29T05:06:18.670Z,31.38
2024-02-29T05:07:18.810Z,31.43
2024-02-29T05:08:18.671Z,31.38
2024-02-29T05:09:18.697Z,31.42
2024-02-29T05:10:18.732Z,31.41
2024-02-29T05:11:18.730Z,31.41
2024-02-29T05:12:18.668Z,31.41
2024-02-29T05:13:18.721Z,31.44
2024-02-29T05:14:18.682Z,31.37
2024-02-29T05:15:18.673Z,31.41
2024-02-29T05:16:18.729Z,31.41
2024-02-29T05:17:18.681Z,31.34
2024-02-29T05:18:18.681Z,31.38
2024-02-29T05:19:18.743Z,31.37
2024-02-29T05:20:18.679Z,31.38
2024-02-29T05:21:18.692Z,31.34
2024-02-29T05:22:18.775Z,31.34
2024-02-29T05:23:18.696Z,31.34
2024-02-29T05:24:18.704Z,31.36
2024-02-29T05:25:18.747Z,31.35
2024-02-29T05:26:18.694Z,31.33
2024-02-29T05:27:18.741Z,31.36
2024-02-29T05:28:18.781Z,31.35
2024-02-29T05:29:18.752Z,31.33
2024-02-29T05:30:18.714Z,31.29
2024-02-29T05:31:18.747Z,31.31
2024-02-29T05:32:19.264Z,31.34
2024-02-29T05:33:18.723Z,31.32
2024-02-29T05:34:18.827Z,31.31
2024-02-29T05:35:18.716Z,31.29
2024-02-29T05:36:18.740Z,31.34
2024-02-29T05:37:18.862Z,31.31
2024-02-29T05:38:18.724Z,31.31
2024-02-29T05:39:18.729Z,31.29
2024-02-29T05:40:18.793Z,31.27
2024-02-29T05:41:18.861Z,31.24
2024-02-29T05:42:18.739Z,31.27
2024-02-29T05:43:18.821Z,31.28
2024-02-29T05:44:18.736Z,31.27
2024-02-29T05:45:18.735Z,31.27
2024-02-29T05:46:18.813Z,31.28
2024-02-29T05:47:18.758Z,31.28
2024-02-29T05:48:18.746Z,31.28
2024-02-29T05:49:18.882Z,31.24
2024-02-29T05:50:18.793Z,31.26
2024-02-29T05:51:18.820Z,31.26
2024-02-29T05:52:18.958Z,31.23
2024-02-29T05:53:18.889Z,31.24
2024-02-29T05:54:18.941Z,31.26
2024-02-29T05:55:19.171Z,31.24
2024-02-29T05:56:18.992Z,31.26
2024-02-29T05:57:19.028Z,31.27
2024-02-29T05:58:19.152Z,31.18
2024-02-29T05:59:19.089Z,31.21
2024-02-29T06:00:19.073Z,31.21
2024-02-29T06:01:19.277Z,31.17
2024-02-29T06:02:19.093Z,31.23
2024-02-29T06:03:19.091Z,31.18
2024-02-29T06:04:19.306Z,31.20
2024-02-29T06:05:19.115Z,31.29
2024-02-29T06:06:19.139Z,31.24
2024-02-29T06:07:19.169Z,31.26
2024-02-29T06:08:19.172Z,31.23
2024-02-29T06:09:19.174Z,31.21
2024-02-29T06:10:19.296Z,31.21
2024-02-29T06:11:19.267Z,31.24
2024-02-29T06:12:19.200Z,31.20
2024-02-29T06:13:19.376Z,31.20
2024-02-29T06:14:19.230Z,31.06
2024-02-29T06:15:19.272Z,30.83
2024-02-29T06:16:19.308Z,30.82
2024-02-29T06:17:19.266Z,30.85
2024-02-29T06:18:19.273Z,30.74
2024-02-29T06:19:19.314Z,30.79
2024-02-29T06:20:19.300Z,31.45
2024-02-29T06:21:19.308Z,31.57
2024-02-29T06:22:19.425Z,31.56
2024-02-29T06:23:19.326Z,31.43
2024-02-29T06:24:20.125Z,31.46
2024-02-29T06:25:19.890Z,31.86
2024-02-29T06:26:19.358Z,31.64
2024-02-29T06:27:19.367Z,31.67
2024-02-29T06:28:22.954Z,31.85
2024-02-29T06:29:19.378Z,31.83
2024-02-29T06:30:19.378Z,31.92
2024-02-29T06:31:19.469Z,31.94
2024-02-29T06:32:19.379Z,31.94
2024-02-29T06:33:19.382Z,31.97
2024-02-29T06:34:19.489Z,31.94
2024-02-29T06:35:19.390Z,31.93
2024-02-29T06:36:19.384Z,32.01
2024-02-29T06:37:19.887Z,32.04
2024-02-29T06:38:19.382Z,32.15
2024-02-29T06:39:19.397Z,32.16
2024-02-29T06:40:19.511Z,32.18
2024-02-29T06:41:19.392Z,32.22
2024-02-29T06:42:19.393Z,32.25
2024-02-29T06:43:19.962Z,32.30
2024-02-29T06:44:19.702Z,32.25
2024-02-29T06:45:19.786Z,32.34
2024-02-29T06:46:19.566Z,32.32
2024-02-29T06:47:19.430Z,32.34
2024-02-29T06:48:19.402Z,32.41
2024-02-29T06:49:19.491Z,32.36
2024-02-29T06:50:19.802Z,32.55
2024-02-29T06:51:19.435Z,32.71
2024-02-29T06:52:19.582Z,32.87
2024-02-29T06:53:19.424Z,32.89
2024-02-29T06:54:19.800Z,32.92
2024-02-29T06:55:19.928Z,33.13
2024-02-29T06:56:19.425Z,33.42
2024-02-29T06:57:19.427Z,33.31
2024-02-29T06:58:19.858Z,33.41
2024-02-29T06:59:20.474Z,33.50
2024-02-29T07:00:26.850Z,33.85
2024-02-29T07:01:19.513Z,33.84
2024-02-29T07:02:19.477Z,33.75
2024-02-29T07:03:23.055Z,33.89
2024-02-29T07:04:19.586Z,34.04
2024-02-29T07:05:19.484Z,34.07
2024-02-29T07:06:19.838Z,34.22
2024-02-29T07:07:19.538Z,34.39
2024-02-29T07:08:22.695Z,34.37
2024-02-29T07:09:19.653Z,34.42
2024-02-29T07:10:19.673Z,34.40
2024-02-29T07:11:19.636Z,34.50
2024-02-29T07:12:19.704Z,34.53
2024-02-29T07:13:20.120Z,34.48
2024-02-29T07:14:19.608Z,34.57
2024-02-29T07:15:19.968Z,34.68
2024-02-29T07:16:19.782Z,34.76
2024-02-29T07:17:20.063Z,34.69
2024-02-29T07:18:19.549Z,34.62
2024-02-29T07:19:19.681Z,34.71
2024-02-29T07:20:19.542Z,34.93
2024-02-29T07:21:19.511Z,34.73
2024-02-29T07:22:19.749Z,34.74
2024-02-29T07:23:19.610Z,34.68
2024-02-29T07:24:20.441Z,34.65
2024-02-29T07:25:20.076Z,34.64
2024-02-29T07:26:19.547Z,34.67
2024-02-29T07:27:19.593Z,34.63
2024-02-29T07:28:20.163Z,34.61
2024-02-29T07:29:19.903Z,34.64
2024-02-29T07:30:19.949Z,34.61
2024-02-29T07:31:19.972Z,34.61
2024-02-29T07:32:20.060Z,34.63
2024-02-29T07:33:20.368Z,34.60
2024-02-29T07:34:20.760Z,34.55
2024-02-29T07:35:20.274Z,34.60
2024-02-29T07:36:20.048Z,34.59
2024-02-29T07:37:20.447Z,34.63
2024-02-29T07:38:20.428Z,34.59
2024-02-29T07:39:20.047Z,34.59
2024-02-29T07:40:20.434Z,34.61
2024-02-29T07:41:27.531Z,34.66
2024-02-29T07:42:20.944Z,34.66
2024-02-29T07:43:20.389Z,34.63
2024-02-29T07:44:20.647Z,34.64
2024-02-29T07:45:21.088Z,34.68
2024-02-29T07:46:20.695Z,34.64
2024-02-29T07:47:20.621Z,34.63
2024-02-29T07:48:20.575Z,34.69
2024-02-29T07:49:20.611Z,34.64
2024-02-29T07:50:20.416Z,34.69
2024-02-29T07:51:20.785Z,34.70
2024-02-29T07:52:20.449Z,34.69
2024-02-29T07:53:20.654Z,34.66
2024-02-29T07:54:20.430Z,34.67
2024-02-29T07:55:20.522Z,34.67
2024-02-29T07:56:20.712Z,34.65
2024-02-29T07:57:20.490Z,34.66
2024-02-29T07:58:20.630Z,34.68
2024-02-29T07:59:20.926Z,34.66
2024-02-29T08:00:20.440Z,34.65
2024-02-29T08:01:20.914Z,34.61
2024-02-29T08:02:22.502Z,34.59
2024-02-29T08:03:20.816Z,34.61
2024-02-29T08:04:20.820Z,34.55
2024-02-29T08:05:20.701Z,34.55
2024-02-29T08:06:20.895Z,34.50
2024-02-29T08:07:20.951Z,34.55
2024-02-29T08:08:20.973Z,34.51
2024-02-29T08:09:20.841Z,34.50
2024-02-29T08:10:20.894Z,34.48
2024-02-29T08:11:20.901Z,34.53
2024-02-29T08:12:20.713Z,34.51
2024-02-29T08:13:21.032Z,34.45
2024-02-29T08:14:21.316Z,34.37
2024-02-29T08:15:20.845Z,34.36
2024-02-29T08:16:20.838Z,34.34
2024-02-29T08:17:20.793Z,34.41
2024-02-29T08:18:20.850Z,34.36
2024-02-29T08:19:20.912Z,34.36
2024-02-29T08:20:20.404Z,34.34
2024-02-29T08:21:20.470Z,34.37
2024-02-29T08:22:20.574Z,34.37
2024-02-29T08:23:20.887Z,34.41
2024-02-29T08:24:20.690Z,34.38
2024-02-29T08:25:20.862Z,34.37
2024-02-29T08:26:20.822Z,34.43
2024-02-29T08:27:20.915Z,34.34
2024-02-29T08:28:21.716Z,34.29
2024-02-29T08:29:21.263Z,34.24
2024-02-29T08:30:21.654Z,34.25
2024-02-29T08:31:21.195Z,34.18
2024-02-29T08:32:21.282Z,34.17
2024-02-29T08:33:21.395Z,34.14
2024-02-29T08:34:21.404Z,34.09
2024-02-29T08:35:21.838Z,33.93
2024-02-29T08:36:21.474Z,33.90
2024-02-29T08:37:21.681Z,33.92
2024-02-29T08:38:21.616Z,34.02
2024-02-29T08:44:24.137Z,34.06
2024-02-29T08:45:22.976Z,34.02
2024-02-29T08:46:21.760Z,34.05
2024-02-29T08:47:21.851Z,34.01
2024-02-29T08:48:21.845Z,33.98
2024-02-29T08:49:22.413Z,34.11
2024-02-29T08:50:22.370Z,34.06
2024-02-29T08:51:22.000Z,34.06
2024-02-29T08:52:22.114Z,34.08
2024-02-29T08:53:22.349Z,34.05
2024-02-29T08:54:22.156Z,34.10
2024-02-29T08:55:22.385Z,33.86
2024-02-29T08:56:22.237Z,33.90
2024-02-29T08:57:22.304Z,33.77
2024-02-29T08:58:22.386Z,33.69
2024-02-29T08:59:22.406Z,33.60
2024-02-29T09:00:22.873Z,33.41
2024-02-29T09:01:22.611Z,33.33
2024-02-29T09:02:23.606Z,33.14
2024-02-29T09:03:22.653Z,33.08
2024-02-29T09:04:22.737Z,33.05
2024-02-29T09:05:22.847Z,32.98
2024-02-29T09:06:22.836Z,32.91
2024-02-29T09:07:23.013Z,32.84
2024-02-29T09:08:23.123Z,32.78
2024-02-29T09:09:23.368Z,32.86
2024-02-29T09:10:23.274Z,32.83
2024-02-29T09:11:23.222Z,32.75
2024-02-29T09:12:23.247Z,32.70
2024-02-29T09:13:30.387Z,32.69
2024-02-29T09:14:23.333Z,32.67
2024-02-29T09:15:23.355Z,32.59
2024-02-29T09:16:23.491Z,32.56
2024-02-29T09:17:23.337Z,32.49
2024-02-29T09:18:23.332Z,32.53
2024-02-29T09:19:23.586Z,32.52
2024-02-29T09:20:23.346Z,32.51
2024-02-29T09:21:23.338Z,32.51
2024-02-29T09:22:23.348Z,32.41
2024-02-29T09:23:23.334Z,32.47
2024-02-29T09:24:23.329Z,32.42
2024-02-29T09:25:23.342Z,32.41
2024-02-29T09:26:23.330Z,32.38
2024-02-29T09:27:23.339Z,32.41
2024-02-29T09:28:23.381Z,32.36
2024-02-29T09:29:26.632Z,32.36
2024-02-29T09:30:23.375Z,32.33
2024-02-29T09:31:26.616Z,32.34
2024-02-29T09:32:23.347Z,32.28
2024-02-29T09:33:23.340Z,32.24
2024-02-29T09:34:23.458Z,32.20
2024-02-29T09:35:23.351Z,32.17
2024-02-29T09:36:23.373Z,32.15
2024-02-29T09:37:23.430Z,32.17
2024-02-29T09:38:23.369Z,32.17
2024-02-29T09:39:23.363Z,32.10
2024-02-29T09:40:23.954Z,32.14
2024-02-29T09:41:40.765Z,32.12
2024-02-29T09:42:23.390Z,32.05
2024-02-29T09:43:23.434Z,32.06
2024-02-29T09:44:23.870Z,32.06
2024-02-29T09:45:25.311Z,32.07
2024-02-29T09:46:23.395Z,32.52
2024-02-29T09:47:23.402Z,32.49
2024-02-29T09:48:23.375Z,33.02
2024-02-29T09:49:23.370Z,32.42
2024-02-29T09:50:24.485Z,32.55
2024-02-29T09:51:23.878Z,30.93
2024-02-29T09:52:23.573Z,30.35
2024-02-29T09:53:23.502Z,30.41
2024-02-29T09:54:23.380Z,31.01
2024-02-29T09:55:23.404Z,30.91
2024-02-29T09:56:23.400Z,30.50
2024-02-29T09:57:23.384Z,31.01
2024-02-29T09:58:23.474Z,30.44
2024-02-29T09:59:23.453Z,30.64
2024-02-29T10:00:23.470Z,30.36
2024-02-29T10:01:24.326Z,29.86
2024-02-29T10:02:23.526Z,30.17
2024-02-29T10:03:23.515Z,30.40
2024-02-29T10:04:23.538Z,30.76
2024-02-29T10:05:23.500Z,30.89
2024-02-29T10:06:23.529Z,30.65
2024-02-29T10:07:23.624Z,30.56
2024-02-29T10:08:23.554Z,30.68
2024-02-29T10:09:23.563Z,30.63
2024-02-29T10:10:23.995Z,30.48
2024-02-29T10:11:23.671Z,30.13
2024-02-29T10:12:23.670Z,30.48
2024-02-29T10:13:23.712Z,30.64
2024-02-29T10:14:23.719Z,30.24
2024-02-29T10:15:23.890Z,30.21
2024-02-29T10:16:26.097Z,30.24
2024-02-29T10:17:23.765Z,30.13
2024-02-29T10:18:23.771Z,30.09
2024-02-29T10:19:24.176Z,30.18
2024-02-29T10:20:39.358Z,30.10
2024-02-29T10:21:23.892Z,30.21
2024-02-29T10:22:23.853Z,29.88
2024-02-29T10:23:23.778Z,30.02
2024-02-29T10:24:23.778Z,29.57
2024-02-29T10:25:23.937Z,29.44
2024-02-29T10:26:23.782Z,28.97
2024-02-29T10:27:23.797Z,29.06
2024-02-29T10:28:23.861Z,29.17
2024-02-29T10:29:25.081Z,28.71
2024-02-29T10:30:23.932Z,28.45
2024-02-29T10:31:23.869Z,28.95
2024-02-29T10:32:23.889Z,29.24
2024-02-29T10:33:23.921Z,29.24
2024-02-29T10:34:23.978Z,29.22
2024-02-29T10:35:23.938Z,29.61
2024-02-29T10:36:23.802Z,29.43
2024-02-29T10:37:23.945Z,29.55
2024-02-29T10:38:23.808Z,29.81
2024-02-29T10:39:23.895Z,30.14
2024-02-29T10:40:24.002Z,30.17
2024-02-29T10:41:23.802Z,30.78
2024-02-29T10:42:23.813Z,30.77
2024-02-29T10:43:23.887Z,30.82
2024-02-29T10:44:23.819Z,30.93
2024-02-29T10:45:26.703Z,31.12
2024-02-29T10:46:24.880Z,31.15
2024-02-29T10:47:23.850Z,31.22
2024-02-29T10:48:23.895Z,31.31
2024-02-29T10:49:23.923Z,31.41
2024-02-29T10:50:23.853Z,31.45
2024-02-29T10:51:27.179Z,31.57
2024-02-29T10:52:23.911Z,31.64
2024-02-29T10:53:23.838Z,31.79
2024-02-29T10:54:23.904Z,31.91
2024-02-29T10:55:23.878Z,32.01
2024-02-29T10:56:23.863Z,32.18
2024-02-29T10:57:23.830Z,32.36
2024-02-29T10:58:23.939Z,32.35
2024-02-29T10:59:23.834Z,32.49
2024-02-29T11:00:23.849Z,32.70
2024-02-29T11:01:23.951Z,33.01
2024-02-29T11:02:23.842Z,32.79
2024-02-29T11:03:23.920Z,32.85
2024-02-29T11:04:23.911Z,32.86
2024-02-29T11:05:23.921Z,32.84
2024-02-29T11:06:23.841Z,32.91
2024-02-29T11:07:23.964Z,32.99
2024-02-29T11:08:23.839Z,33.07
2024-02-29T11:09:27.292Z,33.16
2024-02-29T11:10:23.902Z,33.22
2024-02-29T11:11:23.996Z,33.18
2024-02-29T11:12:23.899Z,33.25
2024-02-29T11:13:23.917Z,33.22
2024-02-29T11:14:23.852Z,33.21
2024-02-29T11:15:25.077Z,33.32
2024-02-29T11:16:24.047Z,33.36
2024-02-29T11:17:24.479Z,33.42
2024-02-29T11:18:23.922Z,33.40
2024-02-29T11:19:24.548Z,33.82
2024-02-29T11:20:24.462Z,33.74
2024-02-29T11:21:23.909Z,33.69
2024-02-29T11:22:23.958Z,33.64
2024-02-29T11:23:23.937Z,33.53
2024-02-29T11:24:24.051Z,33.54
2024-02-29T11:25:24.553Z,33.40
2024-02-29T11:26:24.403Z,33.38
2024-02-29T11:27:23.924Z,33.35
2024-02-29T11:28:24.339Z,33.24
2024-02-29T11:29:23.977Z,33.24
2024-02-29T11:30:24.526Z,33.24
2024-02-29T11:31:23.948Z,33.18
2024-02-29T11:32:23.930Z,33.23
2024-02-29T11:33:23.974Z,33.19
2024-02-29T11:34:23.949Z,33.48
2024-02-29T11:35:24.417Z,33.48
2024-02-29T11:36:23.920Z,33.53
2024-02-29T11:37:26.699Z,33.29
2024-02-29T11:38:29.261Z,33.09
2024-02-29T11:39:24.044Z,32.74
2024-02-29T11:40:23.996Z,32.78
2024-02-29T11:41:23.946Z,32.74
2024-02-29T11:42:23.943Z,32.57
2024-02-29T11:43:26.106Z,32.33
2024-02-29T11:44:23.981Z,32.16
2024-02-29T11:45:24.068Z,32.30
2024-02-29T11:46:23.979Z,32.14
2024-02-29T11:47:23.940Z,32.24
2024-02-29T11:48:23.939Z,32.13
2024-02-29T11:49:24.093Z,31.93
2024-02-29T11:50:24.412Z,32.23
2024-02-29T11:51:23.947Z,32.04
2024-02-29T11:52:23.992Z,31.90
2024-02-29T11:53:23.948Z,32.07
2024-02-29T11:54:26.638Z,32.26
2024-02-29T11:55:24.155Z,32.08
2024-02-29T11:56:24.421Z,32.15
2024-02-29T11:57:23.954Z,32.22
2024-02-29T11:58:24.067Z,32.01
2024-02-29T11:59:23.951Z,31.87
2024-02-29T12:00:23.968Z,32.05
2024-02-29T12:01:24.065Z,31.80
2024-02-29T12:02:23.960Z,32.11
2024-02-29T12:03:23.972Z,31.97
2024-02-29T12:04:24.040Z,31.79
2024-02-29T12:05:23.962Z,31.73
2024-02-29T12:06:23.964Z,31.88
2024-02-29T12:07:24.057Z,31.66
2024-02-29T12:08:23.968Z,32.66
2024-02-29T12:09:23.983Z,32.01
2024-02-29T12:10:23.978Z,31.91
2024-02-29T12:11:24.491Z,31.39
2024-02-29T12:12:24.001Z,30.51
2024-02-29T12:13:24.040Z,30.04
2024-02-29T12:14:24.051Z,29.59
2024-02-29T12:15:24.446Z,29.37
2024-02-29T12:16:23.977Z,29.09
2024-02-29T12:17:24.024Z,28.96
2024-02-29T12:18:24.036Z,29.54
2024-02-29T12:19:24.060Z,30.01
2024-02-29T12:20:23.992Z,29.94
2024-02-29T12:21:23.981Z,30.04
2024-02-29T12:22:24.066Z,30.17
2024-02-29T12:23:24.446Z,30.15
2024-02-29T12:24:24.063Z,30.26
2024-02-29T12:25:24.142Z,30.28
2024-02-29T12:26:24.120Z,30.63
2024-02-29T12:27:24.274Z,30.62
2024-02-29T12:28:24.280Z,30.66
2024-02-29T12:29:24.272Z,30.77
2024-02-29T12:30:24.247Z,30.80
2024-02-29T12:31:24.303Z,30.87
2024-02-29T12:32:24.280Z,30.81
2024-02-29T12:33:27.276Z,30.95
2024-02-29T12:34:24.619Z,31.34
2024-02-29T12:35:24.570Z,31.34
2024-02-29T12:36:24.636Z,31.49
2024-02-29T12:37:24.668Z,31.40
2024-02-29T12:38:24.700Z,31.42
2024-02-29T12:39:24.766Z,31.46
2024-02-29T12:40:24.979Z,31.54
2024-02-29T12:41:24.913Z,31.61
2024-02-29T12:42:25.027Z,31.76
2024-02-29T12:43:25.229Z,31.78
2024-02-29T12:44:25.176Z,31.93
2024-02-29T12:45:25.189Z,31.99
2024-02-29T12:46:25.347Z,32.07
2024-02-29T12:47:25.309Z,32.11
2024-02-29T12:48:25.367Z,32.19
2024-02-29T12:49:25.506Z,32.24
2024-02-29T12:50:25.489Z,32.30
2024-02-29T12:51:25.535Z,32.29
2024-02-29T12:52:25.622Z,32.29
2024-02-29T12:53:25.660Z,32.36
2024-02-29T12:54:25.690Z,32.36
2024-02-29T12:55:25.818Z,32.43
2024-02-29T12:56:25.832Z,32.40
2024-02-29T12:57:25.860Z,32.46
2024-02-29T12:58:25.985Z,32.48
2024-02-29T12:59:26.031Z,32.49
2024-02-29T13:00:25.946Z,32.51
2024-02-29T13:01:26.191Z,32.56
2024-02-29T13:02:26.058Z,32.53
2024-02-29T13:03:26.060Z,32.68
2024-02-29T13:04:26.476Z,32.71
2024-02-29T13:05:26.112Z,32.77
2024-02-29T13:06:26.472Z,32.71
2024-02-29T13:07:26.269Z,32.65
2024-02-29T13:08:26.230Z,32.53
2024-02-29T13:09:26.467Z,32.60
2024-02-29T13:10:26.427Z,32.67
2024-02-29T13:11:26.377Z,32.69
2024-02-29T13:12:26.446Z,32.69
2024-02-29T13:13:26.473Z,32.77
2024-02-29T13:14:26.473Z,32.88
2024-02-29T13:15:26.563Z,32.92
2024-02-29T13:16:26.632Z,33.07
2024-02-29T13:17:26.690Z,33.15
2024-02-29T13:18:26.759Z,33.16
2024-02-29T13:19:26.874Z,33.21
2024-02-29T13:20:26.890Z,33.22
2024-02-29T13:21:26.968Z,33.24
2024-02-29T13:22:27.078Z,33.21
2024-02-29T13:23:27.056Z,33.27
2024-02-29T13:24:27.136Z,33.26
2024-02-29T13:25:27.288Z,33.33
2024-02-29T13:26:27.256Z,33.60
2024-02-29T13:27:27.366Z,33.44
2024-02-29T13:28:27.443Z,33.44
2024-02-29T13:29:27.447Z,33.52
2024-02-29T13:30:28.129Z,33.58
2024-02-29T13:31:27.621Z,33.63
2024-02-29T13:32:27.647Z,33.59
2024-02-29T13:33:27.818Z,33.59
2024-02-29T13:34:27.870Z,33.58
2024-02-29T13:35:27.845Z,33.55
2024-02-29T13:36:27.914Z,33.46
2024-02-29T13:37:28.008Z,33.52
2024-02-29T13:38:28.050Z,33.48
2024-02-29T13:39:28.118Z,33.43
2024-02-29T13:40:28.548Z,33.43
2024-02-29T13:41:28.461Z,33.40
2024-02-29T13:42:28.306Z,33.44
2024-02-29T13:43:28.388Z,33.37
2024-02-29T13:44:28.463Z,33.39
2024-02-29T13:45:28.534Z,33.38
2024-02-29T13:46:28.727Z,33.43
2024-02-29T13:47:28.684Z,33.43
2024-02-29T13:48:28.708Z,33.73
2024-02-29T13:49:28.992Z,33.34
2024-02-29T13:50:28.839Z,33.28